Time;durP1;ratioP1;P1;durP2;ratioP2;P2;SDS_P1;SDS_P2;PMS_P1;PMS_P2;Temp;Humidity;BMP_temperature;BMP_pressure;BME280_temperature;BME280_humidity;BME280_pressure;Samples;Min_cycle;Max_cycle;Signal;HPM_P1;HPM_P2
2023/11/07 00:00:00;;;;;;;0.10;0.10;;;;;;;;;;10493845;28;20066;-74
2023/11/07 00:05:05;;;;;;;0.20;0.10;;;;;;;;;;10493907;28;20142;-73
2023/11/07 00:10:09;;;;;;;;;;;;;;;;;;10503164;28;20071;-74
2023/11/07 00:15:13;;;;;;;0.47;0.17;;;;;;;;;;10498113;28;19932;-73
2023/11/07 00:20:17;;;;;;;0.32;0.25;;;;;;;;;;10499031;28;20044;-73
2023/11/07 00:25:19;;;;;;;0.10;0.10;;;;;;;;;;10492942;28;20072;-73
2023/11/07 00:30:24;;;;;;;0.45;0.20;;;;;;;;;;10495135;28;20063;-72
2023/11/07 00:35:26;;;;;;;1.52;0.38;;;;;;;;;;10487712;28;20039;-73
2023/11/07 00:40:29;;;;;;;0.30;0.30;;;;;;;;;;10489122;28;20478;-73
2023/11/07 00:45:33;;;;;;;0.80;0.20;;;;;;;;;;10488655;28;20147;-74
2023/11/07 00:50:36;;;;;;;0.57;0.20;;;;;;;;;;10495759;28;20051;-72
2023/11/07 00:55:39;;;;;;;0.30;0.10;;;;;;;;;;10488604;28;20043;-72
2023/11/07 01:00:43;;;;;;;0.10;0.10;;;;;;;;;;10489216;28;20079;-71
2023/11/07 01:05:46;;;;;;;0.22;0.20;;;;;;;;;;10490759;28;20071;-71
2023/11/07 01:10:49;;;;;;;0.65;0.22;;;;;;;;;;10486287;28;20081;-71
2023/11/07 01:15:53;;;;;;;1.02;0.20;;;;;;;;;;10498356;28;20051;-72
2023/11/07 01:21:01;;;;;;;0.10;0.10;;;;;;;;;;10498872;28;20051;-71
2023/11/07 01:26:05;;;;;;;1.55;0.40;;;;;;;;;;10493731;28;20037;-71
2023/11/07 01:31:09;;;;;;;0.28;0.10;;;;;;;;;;10499067;28;20468;-72
2023/11/07 01:36:12;;;;;;;0.38;0.20;;;;;;;;;;10492254;28;20040;-71
2023/11/07 01:41:15;;;;;;;0.00;0.00;;;;;;;;;;10494203;28;20048;-71
2023/11/07 01:46:19;;;;;;;0.15;0.13;;;;;;;;;;10493413;28;20442;-72
2023/11/07 01:51:21;;;;;;;;;;;;;;;;;;10495886;28;20068;-72
2023/11/07 01:56:26;;;;;;;0.00;0.00;;;;;;;;;;10500729;28;20462;-72
2023/11/07 02:01:31;;;;;;;0.08;0.03;;;;;;;;;;10496079;28;20500;-71
2023/11/07 02:06:35;;;;;;;0.20;0.20;;;;;;;;;;10494714;28;20079;-72
2023/11/07 02:11:38;;;;;;;0.20;0.10;;;;;;;;;;10495875;28;20040;-72
2023/11/07 02:16:43;;;;;;;0.17;0.17;;;;;;;;;;10501511;28;20224;-71
2023/11/07 02:21:46;;;;;;;1.55;0.20;;;;;;;;;;10498683;28;20620;-71
2023/11/07 02:26:54;;;;;;;0.10;0.10;;;;;;;;;;10500198;28;20036;-72
2023/11/07 02:31:57;;;;;;;0.00;0.00;;;;;;;;;;10495515;28;20048;-72
2023/11/07 02:37:00;;;;;;;0.00;0.00;;;;;;;;;;10495020;28;20044;-72
2023/11/07 02:42:04;;;;;;;0.20;0.20;;;;;;;;;;10493400;28;20152;-72
2023/11/07 02:47:07;;;;;;;0.20;0.10;;;;;;;;;;10491837;28;20136;-73
2023/11/07 02:52:10;;;;;;;0.15;0.15;;;;;;;;;;10496842;28;20054;-71
2023/11/07 02:57:14;;;;;;;0.20;0.20;;;;;;;;;;10495989;28;20116;-71
2023/11/07 03:02:17;;;;;;;0.00;0.00;;;;;;;;;;10498020;28;20040;-73
2023/11/07 03:07:19;;;;;;;0.15;0.03;;;;;;;;;;10498062;28;20166;-73
2023/11/07 03:12:23;;;;;;;0.00;0.00;;;;;;;;;;10489548;28;20128;-71
2023/11/07 03:17:28;;;;;;;0.30;0.10;;;;;;;;;;10492737;28;20078;-72
2023/11/07 03:22:31;;;;;;;0.33;0.30;;;;;;;;;;10493758;28;20029;-71
2023/11/07 03:27:36;;;;;;;0.27;0.23;;;;;;;;;;10487747;28;20067;-70
2023/11/07 03:32:39;;;;;;;0.47;0.20;;;;;;;;;;10490874;28;20101;-71
2023/11/07 03:37:42;;;;;;;0.30;0.30;;;;;;;;;;10490102;28;20100;-71
2023/11/07 03:42:46;;;;;;;0.30;0.15;;;;;;;;;;10491536;28;20149;-71
2023/11/07 03:47:49;;;;;;;0.40;0.30;;;;;;;;;;10491711;28;20032;-71
2023/11/07 03:52:52;;;;;;;1.52;0.30;;;;;;;;;;10497009;28;20044;-72
2023/11/07 03:57:57;;;;;;;1.88;0.57;;;;;;;;;;10488083;28;20186;-73
2023/11/07 04:03:00;;;;;;;;;;;;;;;;;;10491310;28;20103;-73
2023/11/07 04:08:03;;;;;;;0.70;0.32;;;;;;;;;;10490664;28;20390;-72
2023/11/07 04:13:07;;;;;;;0.45;0.28;;;;;;;;;;10494723;28;20038;-72
2023/11/07 04:18:15;;;;;;;0.10;0.10;;;;;;;;;;10489005;28;20047;-72
2023/11/07 04:23:18;;;;;;;0.28;0.22;;;;;;;;;;10488368;28;20174;-71
2023/11/07 04:28:22;;;;;;;1.27;0.38;;;;;;;;;;10497605;28;20139;-72
2023/11/07 04:33:25;;;;;;;;;;;;;;;;;;10496382;28;20126;-72
2023/11/07 04:38:30;;;;;;;0.73;0.22;;;;;;;;;;10492877;28;19924;-72
2023/11/07 04:43:35;;;;;;;0.63;0.20;;;;;;;;;;10524453;28;20048;-72
2023/11/07 04:48:39;;;;;;;0.10;0.10;;;;;;;;;;10494911;28;20576;-71
2023/11/07 04:53:44;;;;;;;0.47;0.27;;;;;;;;;;10502256;28;20577;-72
2023/11/07 04:58:52;;;;;;;0.25;0.20;;;;;;;;;;10498083;28;20036;-72
2023/11/07 05:04:00;;;;;;;1.52;0.40;;;;;;;;;;10504732;28;20127;-71
2023/11/07 05:09:08;;;;;;;0.77;0.25;;;;;;;;;;10493433;28;20052;-71
2023/11/07 05:14:14;;;;;;;1.02;0.28;;;;;;;;;;10500332;28;20066;-73
2023/11/07 05:19:17;;;;;;;0.75;0.30;;;;;;;;;;10496755;28;20338;-72
2023/11/07 05:24:20;;;;;;;0.30;0.30;;;;;;;;;;10499770;28;20132;-72
2023/11/07 05:29:25;;;;;;;0.17;0.17;;;;;;;;;;10498928;28;20179;-72
2023/11/07 05:34:29;;;;;;;1.75;0.32;;;;;;;;;;10494135;28;20040;-72
2023/11/07 05:39:31;;;;;;;0.40;0.20;;;;;;;;;;10502287;28;20109;-71
2023/11/07 05:44:36;;;;;;;0.22;0.10;;;;;;;;;;10503425;28;20106;-71
2023/11/07 05:49:39;;;;;;;1.15;0.30;;;;;;;;;;10502579;28;20071;-72
2023/11/07 05:54:41;;;;;;;0.38;0.20;;;;;;;;;;10501737;28;20052;-72
2023/11/07 05:59:45;;;;;;;0.60;0.40;;;;;;;;;;10496872;28;20515;-71
2023/11/07 06:04:48;;;;;;;2.47;0.60;;;;;;;;;;10497252;28;20146;-72
2023/11/07 06:09:51;;;;;;;0.40;0.40;;;;;;;;;;10502594;28;20032;-72
2023/11/07 06:14:59;;;;;;;1.17;0.57;;;;;;;;;;10499978;28;20767;-71
2023/11/07 06:20:06;;;;;;;1.02;0.90;;;;;;;;;;10497690;28;20028;-73
2023/11/07 06:25:10;;;;;;;0.98;0.55;;;;;;;;;;10497118;28;20071;-71
2023/11/07 06:30:16;;;;;;;2.55;0.50;;;;;;;;;;10494666;28;20113;-74
2023/11/07 06:35:19;;;;;;;0.65;0.50;;;;;;;;;;10495886;28;20125;-72
2023/11/07 06:40:23;;;;;;;1.35;0.60;;;;;;;;;;10503879;28;20524;-72
2023/11/07 06:45:27;;;;;;;0.77;0.60;;;;;;;;;;10497372;28;20052;-71
2023/11/07 06:50:30;;;;;;;1.65;1.10;;;;;;;;;;10499364;28;20045;-73
2023/11/07 06:55:34;;;;;;;2.55;0.90;;;;;;;;;;10487823;28;20041;-72
2023/11/07 07:00:39;;;;;;;0.22;0.22;;;;;;;;;;10491935;28;20110;-72
2023/11/07 07:05:42;;;;;;;2.60;0.95;;;;;;;;;;10497076;28;20058;-72
2023/11/07 07:10:44;;;;;;;2.30;1.10;;;;;;;;;;10496990;28;20048;-71
2023/11/07 07:15:50;;;;;;;1.42;0.68;;;;;;;;;;10494264;28;20067;-73
2023/11/07 07:20:54;;;;;;;1.20;1.00;;;;;;;;;;10496855;28;20068;-72
2023/11/07 07:25:59;;;;;;;1.55;0.70;;;;;;;;;;10497376;28;20036;-71
2023/11/07 07:31:06;;;;;;;3.42;1.40;;;;;;;;;;10495931;28;20555;-74
2023/11/07 07:36:14;;;;;;;1.48;0.80;;;;;;;;;;10494200;28;20134;-72
2023/11/07 07:41:18;;;;;;;1.98;0.70;;;;;;;;;;10498354;28;20585;-73
2023/11/07 07:46:27;;;;;;;2.40;1.00;;;;;;;;;;10493255;28;20048;-72
2023/11/07 07:51:35;;;;;;;0.85;0.77;;;;;;;;;;10491932;28;20393;-71
2023/11/07 07:56:38;;;;;;;0.50;0.47;;;;;;;;;;10486158;28;20108;-71
2023/11/07 08:01:43;;;;;;;0.80;0.65;;;;;;;;;;10494430;28;20139;-72
2023/11/07 08:06:45;;;;;;;1.48;0.90;;;;;;;;;;10492728;28;20048;-71
2023/11/07 08:11:48;;;;;;;1.38;0.50;;;;;;;;;;10490909;28;20098;-71
2023/11/07 08:16:52;;;;;;;2.05;0.82;;;;;;;;;;10495833;28;20031;-71
2023/11/07 08:21:55;;;;;;;;;;;;;;;;;;10490322;28;20051;-72
2023/11/07 08:26:57;;;;;;;1.38;0.63;;;;;;;;;;10495797;28;19995;-71
2023/11/07 08:32:04;;;;;;;0.90;0.75;;;;;;;;;;10496462;28;20059;-72
2023/11/07 08:37:11;;;;;;;1.55;0.90;;;;;;;;;;10486616;28;20056;-72
2023/11/07 08:42:14;;;;;;;0.28;0.28;;;;;;;;;;10505270;28;20045;-71
2023/11/07 08:47:18;;;;;;;2.07;1.00;;;;;;;;;;10489430;28;20044;-70
2023/11/07 08:52:22;;;;;;;4.70;1.10;;;;;;;;;;10491369;28;20071;-70
2023/11/07 08:57:26;;;;;;;2.08;1.02;;;;;;;;;;10487498;28;20055;-72
2023/11/07 09:02:30;;;;;;;3.00;0.80;;;;;;;;;;10487249;28;20142;-73
2023/11/07 09:07:33;;;;;;;2.83;1.10;;;;;;;;;;10494508;28;20210;-71
2023/11/07 09:12:36;;;;;;;3.72;0.98;;;;;;;;;;10489337;28;20044;-73
2023/11/07 09:17:40;;;;;;;1.08;0.55;;;;;;;;;;10491347;28;20133;-71
2023/11/07 09:22:43;;;;;;;0.70;0.70;;;;;;;;;;10491188;28;20044;-73
2023/11/07 09:27:47;;;;;;;1.95;0.90;;;;;;;;;;10487522;28;20048;-71
2023/11/07 09:32:52;;;;;;;1.90;1.05;;;;;;;;;;10488066;28;20047;-71
2023/11/07 09:37:58;;;;;;;3.22;0.80;;;;;;;;;;10499703;28;20044;-70
2023/11/07 09:43:02;;;;;;;2.20;1.10;;;;;;;;;;10497435;28;20080;-70
2023/11/07 09:48:09;;;;;;;1.25;0.68;;;;;;;;;;10497592;28;20701;-71
2023/11/07 09:53:14;;;;;;;1.70;1.20;;;;;;;;;;10499371;28;20055;-72
2023/11/07 09:58:20;;;;;;;3.08;0.98;;;;;;;;;;10493369;28;20324;-71
2023/11/07 10:03:26;;;;;;;2.03;1.05;;;;;;;;;;10495908;28;20066;-72
2023/11/07 10:08:29;;;;;;;0.65;0.50;;;;;;;;;;10494968;28;20105;-72
2023/11/07 10:13:32;;;;;;;1.10;0.90;;;;;;;;;;10500556;28;20106;-72
2023/11/07 10:18:48;;;;;;;4.53;0.82;;;;;;;;;;10501865;28;20051;-71
2023/11/07 10:23:54;;;;;;;5.63;0.52;;;;;;;;;;10501712;28;20059;-71
2023/11/07 10:29:04;;;;;;;1.95;1.15;;;;;;;;;;10506754;28;20052;-71
2023/11/07 10:34:13;;;;;;;0.73;0.60;;;;;;;;;;10493815;28;20063;-70
2023/11/07 10:39:17;;;;;;;0.60;0.45;;;;;;;;;;10492522;28;20246;-72
2023/11/07 10:44:25;;;;;;;0.43;0.43;;;;;;;;;;10493840;28;20486;-71
2023/11/07 10:49:30;;;;;;;0.85;0.60;;;;;;;;;;10494669;28;20123;-71
2023/11/07 10:54:34;;;;;;;0.90;0.60;;;;;;;;;;10492723;28;20056;-72
2023/11/07 10:59:40;;;;;;;0.97;0.70;;;;;;;;;;10497721;28;20063;-72
2023/11/07 11:04:45;;;;;;;0.57;0.30;;;;;;;;;;10491186;28;20124;-72
2023/11/07 11:09:48;;;;;;;3.60;0.60;;;;;;;;;;10496952;28;20050;-71
2023/11/07 11:14:52;;;;;;;0.43;0.22;;;;;;;;;;10497400;28;20051;-73
2023/11/07 11:19:59;;;;;;;0.85;0.60;;;;;;;;;;10489901;28;20076;-72
2023/11/07 11:25:12;;;;;;;1.83;0.35;;;;;;;;;;10498087;28;20129;-73
2023/11/07 11:30:14;;;;;;;2.13;0.38;;;;;;;;;;10489770;28;20136;-71
2023/11/07 11:35:33;;;;;;;0.88;0.60;;;;;;;;;;10493906;28;20051;-72
2023/11/07 11:40:49;;;;;;;2.28;1.23;;;;;;;;;;10489977;28;20508;-71
2023/11/07 11:45:55;;;;;;;1.52;0.57;;;;;;;;;;10491317;28;20052;-72
2023/11/07 11:51:25;;;;;;;3.40;0.80;;;;;;;;;;10493681;28;20048;-72
2023/11/07 11:56:29;;;;;;;2.63;0.93;;;;;;;;;;10489738;28;20167;-72
2023/11/07 12:01:46;;;;;;;1.48;0.60;;;;;;;;;;10492760;28;20119;-72
2023/11/07 12:07:04;;;;;;;0.90;0.80;;;;;;;;;;10499350;28;20072;-71
2023/11/07 12:12:08;;;;;;;2.67;0.93;;;;;;;;;;10472455;28;20052;-71
2023/11/07 12:17:11;;;;;;;2.78;1.20;;;;;;;;;;10490794;28;20434;-72
2023/11/07 12:22:15;;;;;;;2.00;0.98;;;;;;;;;;10490794;28;20126;-72
2023/11/07 12:27:20;;;;;;;1.88;0.80;;;;;;;;;;10487665;28;20085;-71
2023/11/07 12:32:24;;;;;;;3.50;1.20;;;;;;;;;;10487354;28;20044;-70
2023/11/07 12:37:29;;;;;;;0.73;0.55;;;;;;;;;;10487927;28;20129;-73
2023/11/07 12:42:35;;;;;;;1.65;1.00;;;;;;;;;;10494442;28;20047;-71
2023/11/07 12:47:39;;;;;;;2.47;0.90;;;;;;;;;;10496283;28;20135;-71
2023/11/07 12:52:54;;;;;;;2.05;1.08;;;;;;;;;;10488762;28;20040;-71
2023/11/07 12:58:00;;;;;;;3.03;0.90;;;;;;;;;;10494858;28;20048;-71
2023/11/07 13:03:08;;;;;;;1.48;0.52;;;;;;;;;;10497045;28;20051;-71
2023/11/07 13:08:12;;;;;;;0.93;0.63;;;;;;;;;;10486276;28;20079;-72
2023/11/07 13:13:17;;;;;;;1.23;0.75;;;;;;;;;;10500593;28;20035;-72
2023/11/07 13:18:21;;;;;;;3.00;1.10;;;;;;;;;;10499632;28;20048;-71
2023/11/07 13:23:25;;;;;;;0.55;0.55;;;;;;;;;;10501820;28;20109;-71
2023/11/07 13:28:29;;;;;;;3.00;0.90;;;;;;;;;;10500307;28;20102;-71
2023/11/07 13:33:31;;;;;;;;;;;;;;;;;;10497887;28;20070;-71
2023/11/07 13:38:35;;;;;;;1.85;0.80;;;;;;;;;;10497024;28;19924;-71
2023/11/07 13:43:40;;;;;;;1.17;1.02;;;;;;;;;;10493731;28;20051;-71
2023/11/07 13:48:43;;;;;;;0.70;0.70;;;;;;;;;;10499142;28;20552;-71
2023/11/07 13:53:46;;;;;;;2.70;1.10;;;;;;;;;;10494613;28;20093;-70
2023/11/07 13:58:50;;;;;;;0.85;0.40;;;;;;;;;;10498262;28;20132;-71
2023/11/07 14:03:52;;;;;;;7.20;1.23;;;;;;;;;;10498982;28;20044;-72
2023/11/07 14:08:55;;;;;;;0.57;0.40;;;;;;;;;;10504837;28;20053;-71
2023/11/07 14:13:59;;;;;;;1.77;0.90;;;;;;;;;;10499966;28;20036;-75
2023/11/07 14:19:08;;;;;;;;;;;;;;;;;;10491635;28;20048;-72
2023/11/07 14:24:11;;;;;;;2.85;1.45;;;;;;;;;;10503904;28;21812;-72
2023/11/07 14:29:18;;;;;;;2.93;0.90;;;;;;;;;;10494337;28;20462;-72
2023/11/07 14:34:44;;;;;;;2.75;1.60;;;;;;;;;;10492261;28;20384;-72
2023/11/07 14:39:48;;;;;;;4.03;1.05;;;;;;;;;;10497206;28;20493;-73
2023/11/07 14:44:50;;;;;;;;;;;;;;;;;;10508007;28;20072;-73
2023/11/07 14:49:56;;;;;;;2.35;0.90;;;;;;;;;;10497026;28;21801;-73
2023/11/07 14:54:59;;;;;;;3.92;1.00;;;;;;;;;;10499639;28;20137;-73
2023/11/07 15:00:04;;;;;;;1.80;0.80;;;;;;;;;;10492044;28;20032;-72
2023/11/07 15:05:09;;;;;;;2.78;0.90;;;;;;;;;;10499900;28;20401;-71
2023/11/07 15:10:12;;;;;;;1.10;0.73;;;;;;;;;;10492611;28;21448;-74
2023/11/07 15:15:15;;;;;;;3.65;1.10;;;;;;;;;;10495468;28;20367;-72
2023/11/07 15:20:20;;;;;;;1.77;1.02;;;;;;;;;;10494038;28;20086;-71
2023/11/07 15:25:30;;;;;;;1.48;0.93;;;;;;;;;;10491291;28;20052;-71
2023/11/07 15:30:34;;;;;;;1.20;0.95;;;;;;;;;;10495544;28;20044;-72
2023/11/07 15:35:39;;;;;;;3.42;1.30;;;;;;;;;;10495095;28;20397;-71
2023/11/07 15:40:43;;;;;;;3.65;1.08;;;;;;;;;;10493776;28;20130;-73
2023/11/07 15:45:46;;;;;;;2.20;1.40;;;;;;;;;;10492952;28;20048;-72
2023/11/07 15:50:52;;;;;;;1.65;0.90;;;;;;;;;;10490325;28;20067;-73
2023/11/07 15:55:55;;;;;;;6.47;0.77;;;;;;;;;;10496134;28;20509;-72
2023/11/07 16:00:58;;;;;;;1.27;0.80;;;;;;;;;;10489960;28;20037;-72
2023/11/07 16:06:02;;;;;;;0.50;0.30;;;;;;;;;;10492244;28;20498;-72
2023/11/07 16:11:05;;;;;;;4.75;1.27;;;;;;;;;;10494212;28;20500;-71
2023/11/07 16:16:08;;;;;;;0.45;0.45;;;;;;;;;;10493031;28;23017;-71
2023/11/07 16:21:13;;;;;;;1.00;0.73;;;;;;;;;;10493149;28;20047;-72
2023/11/07 16:26:15;;;;;;;;;;;;;;;;;;10494299;28;20055;-71
2023/11/07 16:31:18;;;;;;;2.58;1.00;;;;;;;;;;10500681;28;20556;-74
2023/11/07 16:36:22;;;;;;;1.35;0.75;;;;;;;;;;10494171;28;20113;-71
2023/11/07 16:41:24;;;;;;;1.67;1.02;;;;;;;;;;10491191;28;20234;-71
2023/11/07 16:46:27;;;;;;;3.40;1.00;;;;;;;;;;10488865;28;20491;-71
2023/11/07 16:51:37;;;;;;;0.60;0.60;;;;;;;;;;10493795;28;20043;-72
2023/11/07 16:56:42;;;;;;;0.50;0.50;;;;;;;;;;10484843;28;20041;-72
2023/11/07 17:01:46;;;;;;;8.85;2.30;;;;;;;;;;10489585;28;20778;-71
2023/11/07 17:06:50;;;;;;;3.15;1.38;;;;;;;;;;10490584;28;20097;-71
2023/11/07 17:11:52;;;;;;;1.20;1.08;;;;;;;;;;10489973;28;20028;-72
2023/11/07 17:16:55;;;;;;;1.83;1.02;;;;;;;;;;10491646;28;20123;-71
2023/11/07 17:21:59;;;;;;;2.08;1.40;;;;;;;;;;10488985;28;20032;-71
2023/11/07 17:27:02;;;;;;;;;;;;;;;;;;10493248;28;20059;-71
2023/11/07 17:32:05;;;;;;;0.88;0.65;;;;;;;;;;10488535;28;19978;-72
2023/11/07 17:37:10;;;;;;;1.65;0.98;;;;;;;;;;10490242;28;20170;-71
2023/11/07 17:42:13;;;;;;;1.75;0.90;;;;;;;;;;10491654;28;20051;-71
2023/11/07 17:47:17;;;;;;;1.03;0.93;;;;;;;;;;10490883;28;20036;-72
2023/11/07 17:52:21;;;;;;;1.38;0.90;;;;;;;;;;10487859;28;20059;-71
2023/11/07 17:57:23;;;;;;;0.73;0.60;;;;;;;;;;10493565;28;20056;-72
2023/11/07 18:02:26;;;;;;;2.15;1.00;;;;;;;;;;10498900;28;20040;-72
2023/11/07 18:07:35;;;;;;;3.00;0.57;;;;;;;;;;10504108;28;20040;-72
2023/11/07 18:12:37;;;;;;;0.30;0.30;;;;;;;;;;10500677;28;20067;-72
2023/11/07 18:17:40;;;;;;;0.70;0.70;;;;;;;;;;10494487;28;20044;-71
2023/11/07 18:22:45;;;;;;;0.82;0.50;;;;;;;;;;10495105;28;20477;-70
2023/11/07 18:27:47;;;;;;;0.60;0.28;;;;;;;;;;10495821;28;20064;-74
2023/11/07 18:32:50;;;;;;;0.90;0.47;;;;;;;;;;10503253;28;20114;-71
2023/11/07 18:37:54;;;;;;;1.23;0.60;;;;;;;;;;10511957;28;20055;-72
2023/11/07 18:42:57;;;;;;;1.10;0.60;;;;;;;;;;10513388;28;20110;-72
2023/11/07 18:48:02;;;;;;;1.52;0.70;;;;;;;;;;10524206;28;20040;-73
2023/11/07 18:53:06;;;;;;;1.50;0.82;;;;;;;;;;10512435;28;20043;-72
2023/11/07 18:58:08;;;;;;;2.65;1.00;;;;;;;;;;10512376;28;20075;-72
2023/11/07 19:03:11;;;;;;;1.40;1.00;;;;;;;;;;10511893;28;20052;-71
2023/11/07 19:08:21;;;;;;;0.52;0.40;;;;;;;;;;10520046;28;20036;-72
2023/11/07 19:13:24;;;;;;;0.70;0.70;;;;;;;;;;10516539;28;20044;-72
2023/11/07 19:18:26;;;;;;;1.58;0.90;;;;;;;;;;10512857;28;20056;-72
2023/11/07 19:23:31;;;;;;;1.27;0.70;;;;;;;;;;10512414;28;20576;-71
2023/11/07 19:28:33;;;;;;;0.85;0.73;;;;;;;;;;10509799;28;20438;-72
2023/11/07 19:33:36;;;;;;;1.35;0.60;;;;;;;;;;10505166;28;20128;-72
2023/11/07 19:38:40;;;;;;;1.90;0.65;;;;;;;;;;10507510;28;20040;-73
2023/11/07 19:43:43;;;;;;;;;;;;;;;;;;10504975;28;20039;-72
2023/11/07 19:48:50;;;;;;;1.23;0.68;;;;;;;;;;10513641;28;19920;-72
2023/11/07 19:53:55;;;;;;;0.80;0.57;;;;;;;;;;10507731;28;20097;-72
2023/11/07 19:58:58;;;;;;;1.48;0.80;;;;;;;;;;10508349;28;20129;-71
2023/11/07 20:04:02;;;;;;;1.42;0.75;;;;;;;;;;10518858;28;20126;-72
2023/11/07 20:09:07;;;;;;;0.63;0.63;;;;;;;;;;10511189;28;20090;-71
2023/11/07 20:14:09;;;;;;;;;;;;;;;;;;10517220;28;20104;-71
2023/11/07 20:19:12;;;;;;;1.67;0.63;;;;;;;;;;10523264;28;20454;-71
2023/11/07 20:24:16;;;;;;;1.20;0.60;;;;;;;;;;10516781;28;20044;-74
2023/11/07 20:29:19;;;;;;;2.03;0.70;;;;;;;;;;10520342;28;20051;-72
2023/11/07 20:34:24;;;;;;;0.55;0.40;;;;;;;;;;10509168;28;20044;-72
2023/11/07 20:39:29;;;;;;;1.17;0.52;;;;;;;;;;10521204;28;20493;-71
2023/11/07 20:44:32;;;;;;;;;;;;;;;;;;10512472;28;20049;-72
2023/11/07 20:49:42;;;;;;;0.75;0.75;;;;;;;;;;10502006;28;19924;-72
2023/11/07 20:54:49;;;;;;;0.35;0.30;;;;;;;;;;10510277;28;21333;-72
2023/11/07 20:59:52;;;;;;;3.97;1.40;;;;;;;;;;10510894;28;20093;-74
2023/11/07 21:04:56;;;;;;;;;;;;;;;;;;10507837;28;20040;-75
2023/11/07 21:10:00;;;;;;;0.98;0.47;;;;;;;;;;10513314;28;19924;-72
2023/11/07 21:15:09;;;;;;;3.60;1.13;;;;;;;;;;10510161;28;20035;-73
2023/11/07 21:20:12;;;;;;;1.33;0.90;;;;;;;;;;10509438;28;20041;-72
2023/11/07 21:25:18;;;;;;;2.80;1.02;;;;;;;;;;10511175;28;20067;-73
2023/11/07 21:30:20;;;;;;;;;;;;;;;;;;10507604;28;20047;-72
2023/11/07 21:35:23;;;;;;;4.28;1.20;;;;;;;;;;10523303;28;20151;-73
2023/11/07 21:40:27;;;;;;;2.45;1.00;;;;;;;;;;10522461;28;20044;-70
2023/11/07 21:45:30;;;;;;;1.52;0.90;;;;;;;;;;10518013;28;20067;-73
2023/11/07 21:50:34;;;;;;;1.15;0.63;;;;;;;;;;10514648;28;20043;-72
2023/11/07 21:55:38;;;;;;;2.92;1.33;;;;;;;;;;10519915;28;20111;-72
2023/11/07 22:00:41;;;;;;;1.45;0.80;;;;;;;;;;10501372;28;20522;-72
2023/11/07 22:05:44;;;;;;;0.85;0.68;;;;;;;;;;10502182;28;20028;-73
2023/11/07 22:10:49;;;;;;;2.78;1.15;;;;;;;;;;10499709;28;20052;-72
2023/11/07 22:15:53;;;;;;;2.20;1.00;;;;;;;;;;10513491;28;20362;-71
2023/11/07 22:20:56;;;;;;;0.82;0.47;;;;;;;;;;10503143;28;20119;-73
2023/11/07 22:26:00;;;;;;;2.53;1.20;;;;;;;;;;10507858;28;20036;-73
2023/11/07 22:31:03;;;;;;;0.90;0.85;;;;;;;;;;10498421;28;20039;-73
2023/11/07 22:36:06;;;;;;;3.95;0.77;;;;;;;;;;10502642;28;20122;-72
2023/11/07 22:41:12;;;;;;;1.77;0.98;;;;;;;;;;10498221;28;20044;-73
2023/11/07 22:46:15;;;;;;;1.05;0.80;;;;;;;;;;10499201;28;20044;-72
2023/11/07 22:51:17;;;;;;;2.28;0.75;;;;;;;;;;10498825;28;20056;-72
2023/11/07 22:56:22;;;;;;;1.08;0.70;;;;;;;;;;10504635;28;20392;-72
2023/11/07 23:01:24;;;;;;;1.83;0.98;;;;;;;;;;10506456;28;20038;-71
2023/11/07 23:06:29;;;;;;;1.65;0.90;;;;;;;;;;10495072;28;20530;-71
2023/11/07 23:11:36;;;;;;;2.65;1.05;;;;;;;;;;10489891;28;20445;-73
2023/11/07 23:16:42;;;;;;;1.67;0.57;;;;;;;;;;10490797;28;20060;-72
2023/11/07 23:21:44;;;;;;;1.75;0.70;;;;;;;;;;10495838;28;20032;-71
2023/11/07 23:26:51;;;;;;;3.15;1.27;;;;;;;;;;10503406;28;20036;-72
2023/11/07 23:31:54;;;;;;;1.75;0.90;;;;;;;;;;10505128;28;20056;-72
2023/11/07 23:36:56;;;;;;;2.00;0.90;;;;;;;;;;10495730;28;20129;-72
2023/11/07 23:42:00;;;;;;;1.30;0.60;;;;;;;;;;10488878;28;20131;-71
2023/11/07 23:47:03;;;;;;;;;;;;;;;;;;10491568;28;20040;-72
2023/11/07 23:52:06;;;;;;;3.72;0.73;;;;;;;;;;10502283;28;19924;-71
2023/11/07 23:57:10;;;;;;;0.87;0.60;;;;;;;;;;10494477;28;20469;-72
